sensor_id;sensor_type;location;lat;lon;timestamp;P1;durP1;ratioP1;P2;durP2;ratioP2
67344;SDS011;54230;52.402;6.276;2023-08-24T00:00:00;9.7;;;6.0;;
67344;SDS011;54230;52.402;6.276;2023-08-24T00:05:00;12.9;;;6.5;;
67344;SDS011;54230;52.402;6.276;2023-08-24T00:10:00;10.7;;;6.4;;
67344;SDS011;54230;52.402;6.276;2023-08-24T00:15:00;11.2;;;6.4;;
67344;SDS011;54230;52.402;6.276;2023-08-24T00:20:00;11.6;;;6.8;;
67344;SDS011;54230;52.402;6.276;2023-08-24T00:25:00;13.6;;;7.4;;
67344;SDS011;54230;52.402;6.276;2023-08-24T00:30:01;11.6;;;6.9;;
67344;SDS011;54230;52.402;6.276;2023-08-24T00:35:00;12.7;;;6.9;;
67344;SDS011;54230;52.402;6.276;2023-08-24T00:40:00;10.4;;;6.9;;
67344;SDS011;54230;52.402;6.276;2023-08-24T00:45:00;13.7;;;7.2;;
67344;SDS011;54230;52.402;6.276;2023-08-24T00:50:00;12.6;;;7.2;;
67344;SDS011;54230;52.402;6.276;2023-08-24T00:55:00;9.9;;;6.2;;
67344;SDS011;54230;52.402;6.276;2023-08-24T01:00:02;11.2;;;6.8;;
67344;SDS011;54230;52.402;6.276;2023-08-24T01:05:00;12.2;;;7.0;;
67344;SDS011;54230;52.402;6.276;2023-08-24T01:10:00;12.7;;;7.2;;
67344;SDS011;54230;52.402;6.276;2023-08-24T01:15:02;10.9;;;6.8;;
67344;SDS011;54230;52.402;6.276;2023-08-24T01:20:01;16.8;;;7.1;;
67344;SDS011;54230;52.402;6.276;2023-08-24T01:25:03;13.3;;;6.9;;
67344;SDS011;54230;52.402;6.276;2023-08-24T01:30:00;11.9;;;6.5;;
67344;SDS011;54230;52.402;6.276;2023-08-24T01:35:01;12.5;;;6.6;;
67344;SDS011;54230;52.402;6.276;2023-08-24T01:40:02;10.0;;;6.8;;
67344;SDS011;54230;52.402;6.276;2023-08-24T01:45:00;10.5;;;6.4;;
67344;SDS011;54230;52.402;6.276;2023-08-24T01:50:00;11.3;;;6.8;;
67344;SDS011;54230;52.402;6.276;2023-08-24T01:55:00;10.3;;;6.4;;
67344;SDS011;54230;52.402;6.276;2023-08-24T02:00:00;10.1;;;6.4;;
67344;SDS011;54230;52.402;6.276;2023-08-24T02:05:00;10.9;;;6.7;;
67344;SDS011;54230;52.402;6.276;2023-08-24T02:10:00;10.9;;;6.7;;
67344;SDS011;54230;52.402;6.276;2023-08-24T02:15:00;10.1;;;6.7;;
67344;SDS011;54230;52.402;6.276;2023-08-24T02:20:00;12.6;;;6.9;;
67344;SDS011;54230;52.402;6.276;2023-08-24T02:25:00;11.5;;;6.7;;
67344;SDS011;54230;52.402;6.276;2023-08-24T02:30:00;12.1;;;7.1;;
67344;SDS011;54230;52.402;6.276;2023-08-24T02:35:00;11.9;;;6.7;;
67344;SDS011;54230;52.402;6.276;2023-08-24T02:40:00;13.5;;;7.2;;
67344;SDS011;54230;52.402;6.276;2023-08-24T02:45:00;12.7;;;7.5;;
67344;SDS011;54230;52.402;6.276;2023-08-24T02:50:00;11.8;;;7.5;;
67344;SDS011;54230;52.402;6.276;2023-08-24T02:55:00;13.2;;;8.2;;
67344;SDS011;54230;52.402;6.276;2023-08-24T03:00:00;12.4;;;8.1;;
67344;SDS011;54230;52.402;6.276;2023-08-24T03:05:00;13.6;;;8.1;;
67344;SDS011;54230;52.402;6.276;2023-08-24T03:10:00;12.5;;;7.9;;
67344;SDS011;54230;52.402;6.276;2023-08-24T03:15:00;14.3;;;7.5;;
67344;SDS011;54230;52.402;6.276;2023-08-24T03:20:00;14.0;;;7.6;;
67344;SDS011;54230;52.402;6.276;2023-08-24T03:25:00;15.0;;;8.4;;
67344;SDS011;54230;52.402;6.276;2023-08-24T03:30:00;13.5;;;8.2;;
67344;SDS011;54230;52.402;6.276;2023-08-24T03:35:01;13.0;;;8.0;;
67344;SDS011;54230;52.402;6.276;2023-08-24T03:40:00;13.4;;;8.0;;
67344;SDS011;54230;52.402;6.276;2023-08-24T03:45:00;14.2;;;8.1;;
67344;SDS011;54230;52.402;6.276;2023-08-24T03:50:00;13.6;;;8.1;;
67344;SDS011;54230;52.402;6.276;2023-08-24T03:55:00;14.3;;;8.3;;
67344;SDS011;54230;52.402;6.276;2023-08-24T04:00:00;17.9;;;8.3;;
67344;SDS011;54230;52.402;6.276;2023-08-24T04:05:00;15.2;;;8.8;;
67344;SDS011;54230;52.402;6.276;2023-08-24T04:10:00;16.0;;;9.3;;
67344;SDS011;54230;52.402;6.276;2023-08-24T04:15:00;15.3;;;9.2;;
67344;SDS011;54230;52.402;6.276;2023-08-24T04:20:00;15.5;;;9.0;;
67344;SDS011;54230;52.402;6.276;2023-08-24T04:25:00;16.4;;;9.3;;
67344;SDS011;54230;52.402;6.276;2023-08-24T04:30:00;16.5;;;9.4;;
67344;SDS011;54230;52.402;6.276;2023-08-24T04:35:00;15.9;;;9.0;;
67344;SDS011;54230;52.402;6.276;2023-08-24T04:40:00;15.0;;;9.2;;
67344;SDS011;54230;52.402;6.276;2023-08-24T04:45:00;15.6;;;9.6;;
67344;SDS011;54230;52.402;6.276;2023-08-24T04:50:00;16.6;;;9.6;;
67344;SDS011;54230;52.402;6.276;2023-08-24T04:55:00;14.6;;;9.4;;
67344;SDS011;54230;52.402;6.276;2023-08-24T05:00:00;15.3;;;9.0;;
67344;SDS011;54230;52.402;6.276;2023-08-24T05:05:00;15.7;;;9.3;;
67344;SDS011;54230;52.402;6.276;2023-08-24T05:10:00;14.5;;;8.4;;
67344;SDS011;54230;52.402;6.276;2023-08-24T05:15:00;14.7;;;8.4;;
67344;SDS011;54230;52.402;6.276;2023-08-24T05:20:00;16.1;;;8.8;;
67344;SDS011;54230;52.402;6.276;2023-08-24T05:25:00;15.6;;;9.2;;
67344;SDS011;54230;52.402;6.276;2023-08-24T05:30:00;15.0;;;8.9;;
67344;SDS011;54230;52.402;6.276;2023-08-24T05:35:00;14.2;;;9.1;;
67344;SDS011;54230;52.402;6.276;2023-08-24T05:40:00;14.5;;;9.3;;
67344;SDS011;54230;52.402;6.276;2023-08-24T05:45:00;16.1;;;9.1;;
67344;SDS011;54230;52.402;6.276;2023-08-24T05:50:00;14.4;;;9.1;;
67344;SDS011;54230;52.402;6.276;2023-08-24T05:55:00;15.0;;;9.3;;
67344;SDS011;54230;52.402;6.276;2023-08-24T06:00:00;15.8;;;9.2;;
67344;SDS011;54230;52.402;6.276;2023-08-24T06:05:00;14.1;;;9.3;;
67344;SDS011;54230;52.402;6.276;2023-08-24T06:10:00;13.0;;;7.3;;
67344;SDS011;54230;52.402;6.276;2023-08-24T06:15:00;11.9;;;6.9;;
67344;SDS011;54230;52.402;6.276;2023-08-24T06:20:00;10.8;;;6.6;;
67344;SDS011;54230;52.402;6.276;2023-08-24T06:25:00;12.5;;;7.3;;
67344;SDS011;54230;52.402;6.276;2023-08-24T06:30:00;10.4;;;6.7;;
67344;SDS011;54230;52.402;6.276;2023-08-24T06:35:00;12.4;;;7.4;;
67344;SDS011;54230;52.402;6.276;2023-08-24T06:40:00;10.7;;;7.2;;
67344;SDS011;54230;52.402;6.276;2023-08-24T06:45:00;10.0;;;6.9;;
67344;SDS011;54230;52.402;6.276;2023-08-24T06:50:00;15.0;;;9.3;;
67344;SDS011;54230;52.402;6.276;2023-08-24T06:55:00;14.9;;;9.6;;
67344;SDS011;54230;52.402;6.276;2023-08-24T07:00:00;15.5;;;9.8;;
67344;SDS011;54230;52.402;6.276;2023-08-24T07:05:00;15.7;;;9.7;;
67344;SDS011;54230;52.402;6.276;2023-08-24T07:10:00;16.9;;;9.7;;
67344;SDS011;54230;52.402;6.276;2023-08-24T07:15:00;17.2;;;10.3;;
67344;SDS011;54230;52.402;6.276;2023-08-24T07:20:00;18.9;;;9.9;;
67344;SDS011;54230;52.402;6.276;2023-08-24T07:25:00;14.5;;;9.1;;
67344;SDS011;54230;52.402;6.276;2023-08-24T07:30:00;15.9;;;9.6;;
67344;SDS011;54230;52.402;6.276;2023-08-24T07:35:00;14.4;;;9.5;;
67344;SDS011;54230;52.402;6.276;2023-08-24T07:40:00;15.3;;;9.6;;
67344;SDS011;54230;52.402;6.276;2023-08-24T07:45:00;27.2;;;10.2;;
67344;SDS011;54230;52.402;6.276;2023-08-24T07:50:00;16.9;;;9.4;;
67344;SDS011;54230;52.402;6.276;2023-08-24T07:55:00;15.3;;;9.6;;
67344;SDS011;54230;52.402;6.276;2023-08-24T08:00:00;17.4;;;10.1;;
67344;SDS011;54230;52.402;6.276;2023-08-24T08:05:00;17.2;;;9.3;;
67344;SDS011;54230;52.402;6.276;2023-08-24T08:10:00;14.7;;;8.1;;
67344;SDS011;54230;52.402;6.276;2023-08-24T08:15:00;15.6;;;9.1;;
67344;SDS011;54230;52.402;6.276;2023-08-24T08:20:00;14.6;;;9.4;;
67344;SDS011;54230;52.402;6.276;2023-08-24T08:25:00;16.2;;;9.7;;
67344;SDS011;54230;52.402;6.276;2023-08-24T08:30:00;16.0;;;9.2;;
67344;SDS011;54230;52.402;6.276;2023-08-24T08:35:00;14.4;;;8.9;;
67344;SDS011;54230;52.402;6.276;2023-08-24T08:40:00;12.7;;;8.3;;
67344;SDS011;54230;52.402;6.276;2023-08-24T08:45:00;14.3;;;8.9;;
67344;SDS011;54230;52.402;6.276;2023-08-24T08:50:00;15.6;;;8.7;;
67344;SDS011;54230;52.402;6.276;2023-08-24T08:55:00;14.2;;;9.0;;
67344;SDS011;54230;52.402;6.276;2023-08-24T09:00:00;11.1;;;7.7;;
67344;SDS011;54230;52.402;6.276;2023-08-24T09:05:00;12.4;;;8.7;;
67344;SDS011;54230;52.402;6.276;2023-08-24T09:10:00;13.5;;;8.3;;
67344;SDS011;54230;52.402;6.276;2023-08-24T09:20:05;12.0;;;8.0;;
67344;SDS011;54230;52.402;6.276;2023-08-24T09:25:00;12.7;;;7.2;;
67344;SDS011;54230;52.402;6.276;2023-08-24T09:30:00;12.5;;;7.1;;
67344;SDS011;54230;52.402;6.276;2023-08-24T09:35:02;11.2;;;6.5;;
67344;SDS011;54230;52.402;6.276;2023-08-24T09:40:01;12.4;;;7.2;;
67344;SDS011;54230;52.402;6.276;2023-08-24T09:45:02;10.9;;;6.9;;
67344;SDS011;54230;52.402;6.276;2023-08-24T09:50:00;10.6;;;6.3;;
67344;SDS011;54230;52.402;6.276;2023-08-24T09:55:02;10.0;;;5.8;;
67344;SDS011;54230;52.402;6.276;2023-08-24T10:00:00;8.3;;;5.6;;
67344;SDS011;54230;52.402;6.276;2023-08-24T10:05:00;9.2;;;5.2;;
67344;SDS011;54230;52.402;6.276;2023-08-24T10:10:02;10.4;;;4.7;;
67344;SDS011;54230;52.402;6.276;2023-08-24T10:15:00;8.9;;;4.9;;
67344;SDS011;54230;52.402;6.276;2023-08-24T10:20:00;10.5;;;6.0;;
67344;SDS011;54230;52.402;6.276;2023-08-24T10:25:00;8.9;;;4.8;;
67344;SDS011;54230;52.402;6.276;2023-08-24T10:30:00;8.6;;;4.2;;
67344;SDS011;54230;52.402;6.276;2023-08-24T10:35:00;8.8;;;4.3;;
67344;SDS011;54230;52.402;6.276;2023-08-24T10:40:00;8.5;;;4.7;;
67344;SDS011;54230;52.402;6.276;2023-08-24T10:45:00;8.8;;;4.8;;
67344;SDS011;54230;52.402;6.276;2023-08-24T10:50:00;10.2;;;4.7;;
67344;SDS011;54230;52.402;6.276;2023-08-24T10:55:00;9.2;;;5.2;;
67344;SDS011;54230;52.402;6.276;2023-08-24T11:00:02;9.5;;;5.6;;
67344;SDS011;54230;52.402;6.276;2023-08-24T11:05:03;10.4;;;4.9;;
67344;SDS011;54230;52.402;6.276;2023-08-24T11:10:10;11.5;;;5.0;;
67344;SDS011;54230;52.402;6.276;2023-08-24T11:15:00;12.9;;;5.0;;
67344;SDS011;54230;52.402;6.276;2023-08-24T11:20:00;8.8;;;4.4;;
67344;SDS011;54230;52.402;6.276;2023-08-24T11:25:00;7.7;;;4.7;;
67344;SDS011;54230;52.402;6.276;2023-08-24T11:30:00;11.8;;;5.2;;
67344;SDS011;54230;52.402;6.276;2023-08-24T11:35:00;7.8;;;5.6;;
67344;SDS011;54230;52.402;6.276;2023-08-24T11:40:00;9.7;;;5.6;;
67344;SDS011;54230;52.402;6.276;2023-08-24T11:45:00;11.1;;;6.9;;
67344;SDS011;54230;52.402;6.276;2023-08-24T11:50:00;11.0;;;7.8;;
67344;SDS011;54230;52.402;6.276;2023-08-24T11:55:00;11.0;;;7.1;;
67344;SDS011;54230;52.402;6.276;2023-08-24T12:00:00;11.2;;;7.7;;
67344;SDS011;54230;52.402;6.276;2023-08-24T12:05:00;13.4;;;8.5;;
67344;SDS011;54230;52.402;6.276;2023-08-24T12:10:00;13.3;;;8.0;;
67344;SDS011;54230;52.402;6.276;2023-08-24T12:15:00;11.4;;;8.0;;
67344;SDS011;54230;52.402;6.276;2023-08-24T12:20:00;10.4;;;7.2;;
67344;SDS011;54230;52.402;6.276;2023-08-24T12:25:00;12.3;;;8.3;;
67344;SDS011;54230;52.402;6.276;2023-08-24T12:30:00;11.9;;;7.8;;
67344;SDS011;54230;52.402;6.276;2023-08-24T12:35:00;13.4;;;7.7;;
67344;SDS011;54230;52.402;6.276;2023-08-24T12:40:00;11.0;;;6.7;;
67344;SDS011;54230;52.402;6.276;2023-08-24T12:45:00;11.1;;;7.3;;
67344;SDS011;54230;52.402;6.276;2023-08-24T12:50:00;10.0;;;6.8;;
67344;SDS011;54230;52.402;6.276;2023-08-24T12:55:00;11.8;;;7.9;;
67344;SDS011;54230;52.402;6.276;2023-08-24T13:00:00;13.9;;;7.9;;
67344;SDS011;54230;52.402;6.276;2023-08-24T13:05:00;12.3;;;8.1;;
67344;SDS011;54230;52.402;6.276;2023-08-24T13:10:00;11.9;;;7.2;;
67344;SDS011;54230;52.402;6.276;2023-08-24T13:15:00;13.1;;;7.9;;
67344;SDS011;54230;52.402;6.276;2023-08-24T13:20:00;11.2;;;7.1;;
67344;SDS011;54230;52.402;6.276;2023-08-24T13:25:00;15.2;;;8.9;;
67344;SDS011;54230;52.402;6.276;2023-08-24T13:30:01;13.0;;;7.2;;
67344;SDS011;54230;52.402;6.276;2023-08-24T13:35:00;8.5;;;5.3;;
67344;SDS011;54230;52.402;6.276;2023-08-24T13:40:00;8.3;;;5.4;;
67344;SDS011;54230;52.402;6.276;2023-08-24T13:45:00;14.2;;;6.8;;
67344;SDS011;54230;52.402;6.276;2023-08-24T13:50:00;11.7;;;6.8;;
67344;SDS011;54230;52.402;6.276;2023-08-24T13:55:00;12.5;;;6.2;;
67344;SDS011;54230;52.402;6.276;2023-08-24T14:00:00;10.5;;;5.7;;
67344;SDS011;54230;52.402;6.276;2023-08-24T14:05:00;10.0;;;5.3;;
67344;SDS011;54230;52.402;6.276;2023-08-24T14:10:00;11.7;;;5.8;;
67344;SDS011;54230;52.402;6.276;2023-08-24T14:15:00;9.8;;;5.7;;
67344;SDS011;54230;52.402;6.276;2023-08-24T14:20:00;9.9;;;5.6;;
67344;SDS011;54230;52.402;6.276;2023-08-24T14:25:00;10.1;;;6.2;;
67344;SDS011;54230;52.402;6.276;2023-08-24T14:30:00;10.2;;;6.1;;
67344;SDS011;54230;52.402;6.276;2023-08-24T14:35:00;10.7;;;6.3;;
67344;SDS011;54230;52.402;6.276;2023-08-24T14:40:00;12.5;;;7.2;;
67344;SDS011;54230;52.402;6.276;2023-08-24T14:45:00;11.2;;;6.5;;
67344;SDS011;54230;52.402;6.276;2023-08-24T14:50:00;9.2;;;6.2;;
67344;SDS011;54230;52.402;6.276;2023-08-24T14:55:00;12.8;;;6.9;;
67344;SDS011;54230;52.402;6.276;2023-08-24T15:00:00;12.1;;;7.2;;
67344;SDS011;54230;52.402;6.276;2023-08-24T15:05:00;11.6;;;7.6;;
67344;SDS011;54230;52.402;6.276;2023-08-24T15:10:00;13.6;;;8.2;;
67344;SDS011;54230;52.402;6.276;2023-08-24T15:15:01;13.7;;;8.4;;
67344;SDS011;54230;52.402;6.276;2023-08-24T15:20:00;12.3;;;8.2;;
67344;SDS011;54230;52.402;6.276;2023-08-24T15:25:00;12.4;;;8.5;;
67344;SDS011;54230;52.402;6.276;2023-08-24T15:30:00;14.3;;;8.2;;
67344;SDS011;54230;52.402;6.276;2023-08-24T15:35:00;13.6;;;8.0;;
67344;SDS011;54230;52.402;6.276;2023-08-24T15:40:00;12.1;;;8.1;;
67344;SDS011;54230;52.402;6.276;2023-08-24T15:45:00;11.9;;;6.9;;
67344;SDS011;54230;52.402;6.276;2023-08-24T15:50:00;12.7;;;7.3;;
67344;SDS011;54230;52.402;6.276;2023-08-24T15:55:00;11.8;;;7.1;;
67344;SDS011;54230;52.402;6.276;2023-08-24T16:00:00;12.2;;;7.7;;
67344;SDS011;54230;52.402;6.276;2023-08-24T16:05:00;10.9;;;7.2;;
67344;SDS011;54230;52.402;6.276;2023-08-24T16:10:00;12.6;;;8.0;;
67344;SDS011;54230;52.402;6.276;2023-08-24T16:15:00;11.7;;;7.2;;
67344;SDS011;54230;52.402;6.276;2023-08-24T16:20:02;14.0;;;8.7;;
67344;SDS011;54230;52.402;6.276;2023-08-24T16:25:00;12.8;;;8.0;;
67344;SDS011;54230;52.402;6.276;2023-08-24T16:30:00;11.5;;;8.0;;
67344;SDS011;54230;52.402;6.276;2023-08-24T16:35:00;14.0;;;8.4;;
67344;SDS011;54230;52.402;6.276;2023-08-24T16:40:00;17.0;;;8.8;;
67344;SDS011;54230;52.402;6.276;2023-08-24T16:45:00;13.1;;;7.7;;
67344;SDS011;54230;52.402;6.276;2023-08-24T16:50:00;13.3;;;8.6;;
67344;SDS011;54230;52.402;6.276;2023-08-24T16:55:00;14.5;;;7.2;;
67344;SDS011;54230;52.402;6.276;2023-08-24T17:00:00;13.9;;;6.7;;
67344;SDS011;54230;52.402;6.276;2023-08-24T17:05:01;13.2;;;6.1;;
67344;SDS011;54230;52.402;6.276;2023-08-24T17:10:00;10.5;;;6.0;;
67344;SDS011;54230;52.402;6.276;2023-08-24T17:15:00;10.4;;;5.9;;
67344;SDS011;54230;52.402;6.276;2023-08-24T17:20:00;11.5;;;6.1;;
67344;SDS011;54230;52.402;6.276;2023-08-24T17:25:00;9.4;;;5.7;;
67344;SDS011;54230;52.402;6.276;2023-08-24T17:30:00;10.2;;;5.6;;
67344;SDS011;54230;52.402;6.276;2023-08-24T17:35:00;10.5;;;5.2;;
67344;SDS011;54230;52.402;6.276;2023-08-24T17:40:00;9.7;;;5.1;;
67344;SDS011;54230;52.402;6.276;2023-08-24T17:45:00;12.8;;;4.9;;
67344;SDS011;54230;52.402;6.276;2023-08-24T17:50:00;8.0;;;4.3;;
67344;SDS011;54230;52.402;6.276;2023-08-24T17:55:00;9.6;;;4.6;;
67344;SDS011;54230;52.402;6.276;2023-08-24T18:00:00;8.0;;;4.7;;
67344;SDS011;54230;52.402;6.276;2023-08-24T18:05:00;8.2;;;4.1;;
67344;SDS011;54230;52.402;6.276;2023-08-24T18:10:00;8.9;;;3.8;;
67344;SDS011;54230;52.402;6.276;2023-08-24T18:15:00;7.8;;;3.6;;
67344;SDS011;54230;52.402;6.276;2023-08-24T18:20:00;7.5;;;3.4;;
67344;SDS011;54230;52.402;6.276;2023-08-24T18:25:00;5.6;;;3.4;;
67344;SDS011;54230;52.402;6.276;2023-08-24T18:30:00;7.2;;;3.7;;
67344;SDS011;54230;52.402;6.276;2023-08-24T18:35:00;8.1;;;3.8;;
67344;SDS011;54230;52.402;6.276;2023-08-24T18:40:00;10.1;;;3.8;;
67344;SDS011;54230;52.402;6.276;2023-08-24T18:45:00;7.7;;;3.9;;
67344;SDS011;54230;52.402;6.276;2023-08-24T18:50:00;8.7;;;4.3;;
67344;SDS011;54230;52.402;6.276;2023-08-24T18:55:00;7.6;;;3.6;;
67344;SDS011;54230;52.402;6.276;2023-08-24T19:00:00;7.2;;;3.8;;
67344;SDS011;54230;52.402;6.276;2023-08-24T19:05:00;8.0;;;4.0;;
67344;SDS011;54230;52.402;6.276;2023-08-24T19:10:00;8.5;;;4.7;;
67344;SDS011;54230;52.402;6.276;2023-08-24T19:15:00;10.1;;;4.8;;
67344;SDS011;54230;52.402;6.276;2023-08-24T19:20:00;9.7;;;5.0;;
67344;SDS011;54230;52.402;6.276;2023-08-24T19:25:00;7.6;;;4.9;;
67344;SDS011;54230;52.402;6.276;2023-08-24T19:30:00;9.7;;;5.3;;
67344;SDS011;54230;52.402;6.276;2023-08-24T19:35:00;9.0;;;5.2;;
67344;SDS011;54230;52.402;6.276;2023-08-24T19:40:00;9.8;;;4.8;;
67344;SDS011;54230;52.402;6.276;2023-08-24T19:45:00;7.0;;;4.2;;
67344;SDS011;54230;52.402;6.276;2023-08-24T19:50:00;7.8;;;4.3;;
67344;SDS011;54230;52.402;6.276;2023-08-24T19:55:00;7.9;;;4.2;;
67344;SDS011;54230;52.402;6.276;2023-08-24T20:00:00;7.6;;;4.2;;
67344;SDS011;54230;52.402;6.276;2023-08-24T20:05:00;8.3;;;4.8;;
67344;SDS011;54230;52.402;6.276;2023-08-24T20:10:00;7.7;;;5.1;;
67344;SDS011;54230;52.402;6.276;2023-08-24T20:15:00;7.4;;;4.5;;
67344;SDS011;54230;52.402;6.276;2023-08-24T20:20:00;10.2;;;4.9;;
67344;SDS011;54230;52.402;6.276;2023-08-24T20:25:00;8.0;;;5.4;;
67344;SDS011;54230;52.402;6.276;2023-08-24T20:30:00;7.3;;;4.7;;
67344;SDS011;54230;52.402;6.276;2023-08-24T20:35:00;9.0;;;5.4;;
67344;SDS011;54230;52.402;6.276;2023-08-24T20:40:00;8.0;;;5.0;;
67344;SDS011;54230;52.402;6.276;2023-08-24T20:45:00;8.3;;;4.6;;
67344;SDS011;54230;52.402;6.276;2023-08-24T20:50:00;11.7;;;5.4;;
67344;SDS011;54230;52.402;6.276;2023-08-24T20:55:00;8.5;;;5.4;;
67344;SDS011;54230;52.402;6.276;2023-08-24T21:00:00;10.7;;;6.1;;
67344;SDS011;54230;52.402;6.276;2023-08-24T21:05:00;10.1;;;6.1;;
67344;SDS011;54230;52.402;6.276;2023-08-24T21:10:00;11.4;;;6.0;;
67344;SDS011;54230;52.402;6.276;2023-08-24T21:15:00;10.5;;;6.6;;
67344;SDS011;54230;52.402;6.276;2023-08-24T21:20:00;9.3;;;5.6;;
67344;SDS011;54230;52.402;6.276;2023-08-24T21:25:00;12.2;;;7.2;;
67344;SDS011;54230;52.402;6.276;2023-08-24T21:30:00;11.3;;;7.4;;
67344;SDS011;54230;52.402;6.276;2023-08-24T21:35:00;11.4;;;7.1;;
67344;SDS011;54230;52.402;6.276;2023-08-24T21:40:00;10.9;;;7.2;;
67344;SDS011;54230;52.402;6.276;2023-08-24T21:45:00;11.4;;;6.6;;
67344;SDS011;54230;52.402;6.276;2023-08-24T21:50:00;11.2;;;7.2;;
67344;SDS011;54230;52.402;6.276;2023-08-24T21:55:00;13.5;;;7.6;;
67344;SDS011;54230;52.402;6.276;2023-08-24T22:00:00;11.4;;;7.7;;
67344;SDS011;54230;52.402;6.276;2023-08-24T22:05:00;13.0;;;7.0;;
67344;SDS011;54230;52.402;6.276;2023-08-24T22:10:00;10.9;;;7.5;;
67344;SDS011;54230;52.402;6.276;2023-08-24T22:15:00;10.3;;;6.2;;
67344;SDS011;54230;52.402;6.276;2023-08-24T22:20:00;11.1;;;7.0;;
67344;SDS011;54230;52.402;6.276;2023-08-24T22:25:00;12.0;;;7.9;;
67344;SDS011;54230;52.402;6.276;2023-08-24T22:30:00;10.9;;;7.3;;
67344;SDS011;54230;52.402;6.276;2023-08-24T22:35:00;12.0;;;8.0;;
67344;SDS011;54230;52.402;6.276;2023-08-24T22:40:00;12.6;;;7.7;;
67344;SDS011;54230;52.402;6.276;2023-08-24T22:45:00;13.4;;;7.6;;
67344;SDS011;54230;52.402;6.276;2023-08-24T22:50:01;12.3;;;7.5;;
67344;SDS011;54230;52.402;6.276;2023-08-24T22:55:00;12.6;;;7.7;;
67344;SDS011;54230;52.402;6.276;2023-08-24T23:00:01;10.7;;;7.0;;
67344;SDS011;54230;52.402;6.276;2023-08-24T23:05:00;13.1;;;8.3;;
67344;SDS011;54230;52.402;6.276;2023-08-24T23:10:00;13.3;;;8.3;;
67344;SDS011;54230;52.402;6.276;2023-08-24T23:15:00;13.8;;;8.4;;
67344;SDS011;54230;52.402;6.276;2023-08-24T23:20:00;14.1;;;8.4;;
67344;SDS011;54230;52.402;6.276;2023-08-24T23:25:00;13.4;;;8.4;;
67344;SDS011;54230;52.402;6.276;2023-08-24T23:30:00;12.6;;;7.9;;
67344;SDS011;54230;52.402;6.276;2023-08-24T23:35:00;11.8;;;7.6;;
67344;SDS011;54230;52.402;6.276;2023-08-24T23:40:00;10.6;;;7.4;;
67344;SDS011;54230;52.402;6.276;2023-08-24T23:45:00;12.1;;;7.1;;
67344;SDS011;54230;52.402;6.276;2023-08-24T23:50:00;10.1;;;7.1;;
67344;SDS011;54230;52.402;6.276;2023-08-24T23:55:00;9.8;;;6.2;;
